sensor_id;sensor_type;location;lat;lon;timestamp;P1;durP1;ratioP1;P2;durP2;ratioP2
39218;SDS011;24934;52.752;6.964;2022-08-21T00:01:32;2.92;;;2.83;;
39218;SDS011;24934;52.752;6.964;2022-08-21T00:03:57;3.42;;;3.22;;
39218;SDS011;24934;52.752;6.964;2022-08-21T00:06:28;4.70;;;4.30;;
39218;SDS011;24934;52.752;6.964;2022-08-21T00:08:53;3.40;;;3.20;;
39218;SDS011;24934;52.752;6.964;2022-08-21T00:11:19;3.72;;;3.53;;
39218;SDS011;24934;52.752;6.964;2022-08-21T00:13:45;4.28;;;3.97;;
39218;SDS011;24934;52.752;6.964;2022-08-21T00:16:11;4.50;;;4.10;;
39218;SDS011;24934;52.752;6.964;2022-08-21T00:18:36;4.20;;;3.95;;
39218;SDS011;24934;52.752;6.964;2022-08-21T00:21:02;5.25;;;4.65;;
39218;SDS011;24934;52.752;6.964;2022-08-21T00:23:28;4.18;;;3.90;;
39218;SDS011;24934;52.752;6.964;2022-08-21T00:25:55;3.60;;;3.33;;
39218;SDS011;24934;52.752;6.964;2022-08-21T00:28:20;4.28;;;3.95;;
39218;SDS011;24934;52.752;6.964;2022-08-21T00:30:46;6.43;;;4.40;;
39218;SDS011;24934;52.752;6.964;2022-08-21T00:33:12;3.90;;;3.70;;
39218;SDS011;24934;52.752;6.964;2022-08-21T00:35:39;4.28;;;4.07;;
39218;SDS011;24934;52.752;6.964;2022-08-21T00:38:09;4.00;;;3.80;;
39218;SDS011;24934;52.752;6.964;2022-08-21T00:40:41;4.85;;;3.58;;
39218;SDS011;24934;52.752;6.964;2022-08-21T00:43:20;3.60;;;3.40;;
39218;SDS011;24934;52.752;6.964;2022-08-21T00:45:58;7.68;;;3.88;;
39218;SDS011;24934;52.752;6.964;2022-08-21T00:48:25;3.88;;;3.67;;
39218;SDS011;24934;52.752;6.964;2022-08-21T00:51:13;4.90;;;4.60;;
39218;SDS011;24934;52.752;6.964;2022-08-21T00:53:48;7.22;;;4.65;;
39218;SDS011;24934;52.752;6.964;2022-08-21T00:56:19;7.82;;;4.53;;
39218;SDS011;24934;52.752;6.964;2022-08-21T00:58:47;5.38;;;4.88;;
39218;SDS011;24934;52.752;6.964;2022-08-21T01:01:13;4.32;;;4.03;;
39218;SDS011;24934;52.752;6.964;2022-08-21T01:03:39;4.50;;;4.20;;
39218;SDS011;24934;52.752;6.964;2022-08-21T01:06:06;4.68;;;4.38;;
39218;SDS011;24934;52.752;6.964;2022-08-21T01:08:32;4.15;;;3.85;;
39218;SDS011;24934;52.752;6.964;2022-08-21T01:10:59;4.93;;;4.32;;
39218;SDS011;24934;52.752;6.964;2022-08-21T01:13:26;10.18;;;4.85;;
39218;SDS011;24934;52.752;6.964;2022-08-21T01:15:55;4.55;;;4.25;;
39218;SDS011;24934;52.752;6.964;2022-08-21T01:18:24;4.97;;;4.60;;
39218;SDS011;24934;52.752;6.964;2022-08-21T01:23:40;4.20;;;4.00;;
39218;SDS011;24934;52.752;6.964;2022-08-21T01:26:11;5.18;;;4.88;;
39218;SDS011;24934;52.752;6.964;2022-08-21T01:28:47;5.35;;;5.05;;
39218;SDS011;24934;52.752;6.964;2022-08-21T01:31:19;4.95;;;4.65;;
39218;SDS011;24934;52.752;6.964;2022-08-21T01:33:48;4.68;;;4.38;;
39218;SDS011;24934;52.752;6.964;2022-08-21T01:36:14;4.78;;;4.47;;
39218;SDS011;24934;52.752;6.964;2022-08-21T01:38:40;5.22;;;4.85;;
39218;SDS011;24934;52.752;6.964;2022-08-21T01:41:06;4.88;;;4.57;;
39218;SDS011;24934;52.752;6.964;2022-08-21T01:43:34;4.30;;;4.10;;
39218;SDS011;24934;52.752;6.964;2022-08-21T01:46:03;7.07;;;5.45;;
39218;SDS011;24934;52.752;6.964;2022-08-21T01:48:29;4.97;;;4.65;;
39218;SDS011;24934;52.752;6.964;2022-08-21T01:50:54;4.38;;;4.15;;
39218;SDS011;24934;52.752;6.964;2022-08-21T01:53:20;5.35;;;4.97;;
39218;SDS011;24934;52.752;6.964;2022-08-21T01:55:49;5.53;;;5.22;;
39218;SDS011;24934;52.752;6.964;2022-08-21T01:58:15;4.30;;;4.10;;
39218;SDS011;24934;52.752;6.964;2022-08-21T02:00:40;4.95;;;4.65;;
39218;SDS011;24934;52.752;6.964;2022-08-21T02:03:06;5.38;;;4.97;;
39218;SDS011;24934;52.752;6.964;2022-08-21T02:05:35;9.40;;;5.80;;
39218;SDS011;24934;52.752;6.964;2022-08-21T02:08:00;5.25;;;4.95;;
39218;SDS011;24934;52.752;6.964;2022-08-21T02:10:27;6.85;;;6.30;;
39218;SDS011;24934;52.752;6.964;2022-08-21T02:12:55;6.93;;;6.53;;
39218;SDS011;24934;52.752;6.964;2022-08-21T02:15:22;6.70;;;6.10;;
39218;SDS011;24934;52.752;6.964;2022-08-21T02:17:50;6.55;;;5.80;;
39218;SDS011;24934;52.752;6.964;2022-08-21T02:20:22;6.60;;;6.10;;
39218;SDS011;24934;52.752;6.964;2022-08-21T02:22:48;8.23;;;7.45;;
39218;SDS011;24934;52.752;6.964;2022-08-21T02:25:15;4.88;;;4.53;;
39218;SDS011;24934;52.752;6.964;2022-08-21T02:27:43;7.60;;;6.93;;
39218;SDS011;24934;52.752;6.964;2022-08-21T02:30:27;5.55;;;5.05;;
39218;SDS011;24934;52.752;6.964;2022-08-21T02:32:55;6.40;;;5.90;;
39218;SDS011;24934;52.752;6.964;2022-08-21T02:35:21;6.80;;;5.72;;
39218;SDS011;24934;52.752;6.964;2022-08-21T02:37:48;5.30;;;4.93;;
39218;SDS011;24934;52.752;6.964;2022-08-21T02:40:17;5.38;;;4.93;;
39218;SDS011;24934;52.752;6.964;2022-08-21T02:42:46;5.30;;;5.00;;
39218;SDS011;24934;52.752;6.964;2022-08-21T02:45:11;6.55;;;5.47;;
39218;SDS011;24934;52.752;6.964;2022-08-21T02:47:38;5.60;;;5.22;;
39218;SDS011;24934;52.752;6.964;2022-08-21T02:50:05;7.05;;;5.75;;
39218;SDS011;24934;52.752;6.964;2022-08-21T02:52:34;6.30;;;5.70;;
39218;SDS011;24934;52.752;6.964;2022-08-21T02:55:01;5.85;;;5.45;;
39218;SDS011;24934;52.752;6.964;2022-08-21T02:57:27;9.57;;;6.60;;
39218;SDS011;24934;52.752;6.964;2022-08-21T02:59:52;6.40;;;5.80;;
39218;SDS011;24934;52.752;6.964;2022-08-21T03:02:18;5.43;;;5.13;;
39218;SDS011;24934;52.752;6.964;2022-08-21T03:04:44;5.53;;;5.13;;
39218;SDS011;24934;52.752;6.964;2022-08-21T03:07:09;5.50;;;5.20;;
39218;SDS011;24934;52.752;6.964;2022-08-21T03:09:35;6.22;;;5.78;;
39218;SDS011;24934;52.752;6.964;2022-08-21T03:12:00;5.68;;;5.28;;
39218;SDS011;24934;52.752;6.964;2022-08-21T03:14:26;5.75;;;5.35;;
39218;SDS011;24934;52.752;6.964;2022-08-21T03:16:52;29.20;;;5.40;;
39218;SDS011;24934;52.752;6.964;2022-08-21T03:19:17;5.75;;;5.35;;
39218;SDS011;24934;52.752;6.964;2022-08-21T03:21:46;6.28;;;5.75;;
39218;SDS011;24934;52.752;6.964;2022-08-21T03:24:11;5.78;;;5.38;;
39218;SDS011;24934;52.752;6.964;2022-08-21T03:26:37;5.82;;;5.47;;
39218;SDS011;24934;52.752;6.964;2022-08-21T03:29:02;6.47;;;5.97;;
39218;SDS011;24934;52.752;6.964;2022-08-21T03:31:28;5.68;;;5.28;;
39218;SDS011;24934;52.752;6.964;2022-08-21T03:33:56;9.98;;;5.72;;
39218;SDS011;24934;52.752;6.964;2022-08-21T03:36:23;6.32;;;5.70;;
39218;SDS011;24934;52.752;6.964;2022-08-21T03:38:49;5.25;;;4.95;;
39218;SDS011;24934;52.752;6.964;2022-08-21T03:41:14;6.65;;;6.25;;
39218;SDS011;24934;52.752;6.964;2022-08-21T03:43:40;5.78;;;5.38;;
39218;SDS011;24934;52.752;6.964;2022-08-21T03:46:06;6.00;;;5.60;;
39218;SDS011;24934;52.752;6.964;2022-08-21T03:48:38;6.03;;;5.63;;
39218;SDS011;24934;52.752;6.964;2022-08-21T03:51:04;6.82;;;6.32;;
39218;SDS011;24934;52.752;6.964;2022-08-21T03:53:31;6.85;;;6.40;;
39218;SDS011;24934;52.752;6.964;2022-08-21T03:55:57;6.30;;;5.90;;
39218;SDS011;24934;52.752;6.964;2022-08-21T03:58:24;6.28;;;5.88;;
39218;SDS011;24934;52.752;6.964;2022-08-21T04:00:57;7.18;;;6.50;;
39218;SDS011;24934;52.752;6.964;2022-08-21T04:03:25;6.72;;;6.15;;
39218;SDS011;24934;52.752;6.964;2022-08-21T04:05:52;7.88;;;6.68;;
39218;SDS011;24934;52.752;6.964;2022-08-21T04:08:17;5.97;;;5.57;;
39218;SDS011;24934;52.752;6.964;2022-08-21T04:10:47;5.93;;;5.53;;
39218;SDS011;24934;52.752;6.964;2022-08-21T04:13:15;9.55;;;5.65;;
39218;SDS011;24934;52.752;6.964;2022-08-21T04:15:40;6.82;;;6.32;;
39218;SDS011;24934;52.752;6.964;2022-08-21T04:18:06;41.63;;;7.05;;
39218;SDS011;24934;52.752;6.964;2022-08-21T04:20:33;6.28;;;5.82;;
39218;SDS011;24934;52.752;6.964;2022-08-21T04:23:00;6.95;;;6.25;;
39218;SDS011;24934;52.752;6.964;2022-08-21T04:25:26;5.70;;;5.20;;
39218;SDS011;24934;52.752;6.964;2022-08-21T04:27:52;6.72;;;6.25;;
39218;SDS011;24934;52.752;6.964;2022-08-21T04:30:18;7.10;;;6.60;;
39218;SDS011;24934;52.752;6.964;2022-08-21T04:32:45;7.22;;;6.78;;
39218;SDS011;24934;52.752;6.964;2022-08-21T04:35:13;7.07;;;6.68;;
39218;SDS011;24934;52.752;6.964;2022-08-21T04:37:39;7.43;;;6.82;;
39218;SDS011;24934;52.752;6.964;2022-08-21T04:40:05;6.97;;;6.57;;
39218;SDS011;24934;52.752;6.964;2022-08-21T04:42:32;8.13;;;7.63;;
39218;SDS011;24934;52.752;6.964;2022-08-21T04:44:58;8.52;;;7.93;;
39218;SDS011;24934;52.752;6.964;2022-08-21T04:47:45;8.00;;;7.38;;
39218;SDS011;24934;52.752;6.964;2022-08-21T04:50:13;9.30;;;8.50;;
39218;SDS011;24934;52.752;6.964;2022-08-21T04:52:39;12.23;;;8.07;;
39218;SDS011;24934;52.752;6.964;2022-08-21T04:55:07;8.55;;;8.05;;
39218;SDS011;24934;52.752;6.964;2022-08-21T04:57:33;8.20;;;7.70;;
39218;SDS011;24934;52.752;6.964;2022-08-21T05:00:00;7.93;;;7.43;;
39218;SDS011;24934;52.752;6.964;2022-08-21T05:02:30;8.07;;;7.47;;
39218;SDS011;24934;52.752;6.964;2022-08-21T05:04:58;8.10;;;7.60;;
39218;SDS011;24934;52.752;6.964;2022-08-21T05:07:25;7.75;;;7.30;;
39218;SDS011;24934;52.752;6.964;2022-08-21T05:09:53;7.72;;;7.22;;
39218;SDS011;24934;52.752;6.964;2022-08-21T05:12:19;8.13;;;7.30;;
39218;SDS011;24934;52.752;6.964;2022-08-21T05:14:45;8.50;;;7.55;;
39218;SDS011;24934;52.752;6.964;2022-08-21T05:17:14;8.07;;;7.50;;
39218;SDS011;24934;52.752;6.964;2022-08-21T05:19:40;7.50;;;7.00;;
39218;SDS011;24934;52.752;6.964;2022-08-21T05:22:06;7.15;;;6.55;;
39218;SDS011;24934;52.752;6.964;2022-08-21T05:24:31;6.80;;;6.40;;
39218;SDS011;24934;52.752;6.964;2022-08-21T05:26:57;7.20;;;6.72;;
39218;SDS011;24934;52.752;6.964;2022-08-21T05:29:23;8.77;;;7.13;;
39218;SDS011;24934;52.752;6.964;2022-08-21T05:31:49;6.72;;;6.32;;
39218;SDS011;24934;52.752;6.964;2022-08-21T05:34:21;7.80;;;7.20;;
39218;SDS011;24934;52.752;6.964;2022-08-21T05:36:48;9.00;;;8.30;;
39218;SDS011;24934;52.752;6.964;2022-08-21T05:39:14;7.75;;;7.25;;
39218;SDS011;24934;52.752;6.964;2022-08-21T05:41:42;8.70;;;8.02;;
39218;SDS011;24934;52.752;6.964;2022-08-21T05:44:08;7.30;;;6.80;;
39218;SDS011;24934;52.752;6.964;2022-08-21T05:46:40;8.25;;;7.60;;
39218;SDS011;24934;52.752;6.964;2022-08-21T05:49:05;8.02;;;7.53;;
39218;SDS011;24934;52.752;6.964;2022-08-21T05:51:31;8.30;;;7.80;;
39218;SDS011;24934;52.752;6.964;2022-08-21T05:53:56;8.75;;;8.25;;
39218;SDS011;24934;52.752;6.964;2022-08-21T05:56:22;8.13;;;7.63;;
39218;SDS011;24934;52.752;6.964;2022-08-21T05:58:48;8.57;;;7.97;;
39218;SDS011;24934;52.752;6.964;2022-08-21T06:01:13;8.30;;;7.80;;
39218;SDS011;24934;52.752;6.964;2022-08-21T06:03:39;8.07;;;7.57;;
39218;SDS011;24934;52.752;6.964;2022-08-21T06:06:06;7.78;;;7.28;;
39218;SDS011;24934;52.752;6.964;2022-08-21T06:08:31;7.90;;;7.38;;
39218;SDS011;24934;52.752;6.964;2022-08-21T06:10:59;8.02;;;7.53;;
39218;SDS011;24934;52.752;6.964;2022-08-21T06:13:26;7.65;;;7.18;;
39218;SDS011;24934;52.752;6.964;2022-08-21T06:16:01;9.07;;;8.25;;
39218;SDS011;24934;52.752;6.964;2022-08-21T06:18:29;7.60;;;7.10;;
39218;SDS011;24934;52.752;6.964;2022-08-21T06:20:57;8.02;;;7.53;;
39218;SDS011;24934;52.752;6.964;2022-08-21T06:23:23;7.97;;;7.40;;
39218;SDS011;24934;52.752;6.964;2022-08-21T06:25:48;7.65;;;7.15;;
39218;SDS011;24934;52.752;6.964;2022-08-21T06:28:14;7.10;;;6.70;;
39218;SDS011;24934;52.752;6.964;2022-08-21T06:30:40;7.00;;;6.53;;
39218;SDS011;24934;52.752;6.964;2022-08-21T06:33:05;7.25;;;6.75;;
39218;SDS011;24934;52.752;6.964;2022-08-21T06:35:32;7.75;;;7.15;;
39218;SDS011;24934;52.752;6.964;2022-08-21T06:37:58;7.20;;;6.47;;
39218;SDS011;24934;52.752;6.964;2022-08-21T06:40:25;7.35;;;6.57;;
39218;SDS011;24934;52.752;6.964;2022-08-21T06:42:51;6.63;;;6.22;;
39218;SDS011;24934;52.752;6.964;2022-08-21T06:45:17;6.72;;;6.32;;
39218;SDS011;24934;52.752;6.964;2022-08-21T06:47:42;7.05;;;6.38;;
39218;SDS011;24934;52.752;6.964;2022-08-21T06:50:08;6.50;;;6.10;;
39218;SDS011;24934;52.752;6.964;2022-08-21T06:52:35;6.05;;;5.75;;
39218;SDS011;24934;52.752;6.964;2022-08-21T06:55:01;7.10;;;6.68;;
39218;SDS011;24934;52.752;6.964;2022-08-21T06:57:31;9.23;;;7.60;;
39218;SDS011;24934;52.752;6.964;2022-08-21T06:59:57;7.70;;;6.90;;
39218;SDS011;24934;52.752;6.964;2022-08-21T07:02:23;7.88;;;7.18;;
39218;SDS011;24934;52.752;6.964;2022-08-21T07:04:49;7.43;;;6.70;;
39218;SDS011;24934;52.752;6.964;2022-08-21T07:07:15;14.48;;;8.07;;
39218;SDS011;24934;52.752;6.964;2022-08-21T07:09:41;6.68;;;6.28;;
39218;SDS011;24934;52.752;6.964;2022-08-21T07:12:07;7.95;;;7.35;;
39218;SDS011;24934;52.752;6.964;2022-08-21T07:14:34;7.68;;;7.18;;
39218;SDS011;24934;52.752;6.964;2022-08-21T07:17:00;7.45;;;7.05;;
39218;SDS011;24934;52.752;6.964;2022-08-21T07:19:29;10.23;;;8.05;;
39218;SDS011;24934;52.752;6.964;2022-08-21T07:21:56;7.70;;;7.20;;
39218;SDS011;24934;52.752;6.964;2022-08-21T07:24:24;7.32;;;6.93;;
39218;SDS011;24934;52.752;6.964;2022-08-21T07:26:50;10.00;;;9.25;;
39218;SDS011;24934;52.752;6.964;2022-08-21T07:29:16;8.50;;;7.80;;
39218;SDS011;24934;52.752;6.964;2022-08-21T07:31:42;8.90;;;8.30;;
39218;SDS011;24934;52.752;6.964;2022-08-21T07:34:08;8.55;;;8.02;;
39218;SDS011;24934;52.752;6.964;2022-08-21T07:36:33;7.60;;;7.20;;
39218;SDS011;24934;52.752;6.964;2022-08-21T07:38:59;7.97;;;7.43;;
39218;SDS011;24934;52.752;6.964;2022-08-21T07:41:26;8.05;;;7.45;;
39218;SDS011;24934;52.752;6.964;2022-08-21T07:43:56;7.97;;;7.50;;
39218;SDS011;24934;52.752;6.964;2022-08-21T07:46:23;7.72;;;7.22;;
39218;SDS011;24934;52.752;6.964;2022-08-21T07:48:50;7.43;;;7.03;;
39218;SDS011;24934;52.752;6.964;2022-08-21T07:51:16;9.68;;;8.10;;
39218;SDS011;24934;52.752;6.964;2022-08-21T07:53:50;10.82;;;8.27;;
39218;SDS011;24934;52.752;6.964;2022-08-21T07:56:18;8.38;;;7.63;;
39218;SDS011;24934;52.752;6.964;2022-08-21T07:58:44;8.63;;;8.02;;
39218;SDS011;24934;52.752;6.964;2022-08-21T08:01:13;9.10;;;8.45;;
39218;SDS011;24934;52.752;6.964;2022-08-21T08:03:42;8.07;;;7.57;;
39218;SDS011;24934;52.752;6.964;2022-08-21T08:06:10;8.55;;;7.95;;
39218;SDS011;24934;52.752;6.964;2022-08-21T08:08:38;8.77;;;8.18;;
39218;SDS011;24934;52.752;6.964;2022-08-21T08:11:05;8.75;;;8.07;;
39218;SDS011;24934;52.752;6.964;2022-08-21T08:13:31;8.70;;;8.10;;
39218;SDS011;24934;52.752;6.964;2022-08-21T08:16:02;7.85;;;7.38;;
39218;SDS011;24934;52.752;6.964;2022-08-21T08:18:28;8.30;;;7.80;;
39218;SDS011;24934;52.752;6.964;2022-08-21T08:20:54;9.07;;;8.48;;
39218;SDS011;24934;52.752;6.964;2022-08-21T08:23:23;8.57;;;7.90;;
39218;SDS011;24934;52.752;6.964;2022-08-21T08:25:48;7.75;;;7.35;;
39218;SDS011;24934;52.752;6.964;2022-08-21T08:28:14;8.40;;;7.90;;
39218;SDS011;24934;52.752;6.964;2022-08-21T08:30:41;8.10;;;7.60;;
39218;SDS011;24934;52.752;6.964;2022-08-21T08:33:07;7.25;;;6.85;;
39218;SDS011;24934;52.752;6.964;2022-08-21T08:35:33;7.90;;;7.13;;
39218;SDS011;24934;52.752;6.964;2022-08-21T08:37:59;7.47;;;7.05;;
39218;SDS011;24934;52.752;6.964;2022-08-21T08:40:44;7.88;;;7.28;;
39218;SDS011;24934;52.752;6.964;2022-08-21T08:43:14;7.38;;;6.78;;
39218;SDS011;24934;52.752;6.964;2022-08-21T08:45:42;7.28;;;6.45;;
39218;SDS011;24934;52.752;6.964;2022-08-21T08:48:12;8.05;;;7.55;;
39218;SDS011;24934;52.752;6.964;2022-08-21T08:50:44;7.18;;;6.68;;
39218;SDS011;24934;52.752;6.964;2022-08-21T08:53:19;6.53;;;6.13;;
39218;SDS011;24934;52.752;6.964;2022-08-21T08:55:49;11.43;;;7.45;;
39218;SDS011;24934;52.752;6.964;2022-08-21T08:58:24;7.25;;;6.78;;
39218;SDS011;24934;52.752;6.964;2022-08-21T09:00:55;7.90;;;7.40;;
39218;SDS011;24934;52.752;6.964;2022-08-21T09:03:22;8.70;;;7.20;;
39218;SDS011;24934;52.752;6.964;2022-08-21T09:09:28;8.10;;;7.60;;
39218;SDS011;24934;52.752;6.964;2022-08-21T09:22:52;9.48;;;8.88;;
39218;SDS011;24934;52.752;6.964;2022-08-21T09:25:49;9.75;;;9.15;;
39218;SDS011;24934;52.752;6.964;2022-08-21T09:28:33;8.85;;;8.35;;
39218;SDS011;24934;52.752;6.964;2022-08-21T09:31:00;8.00;;;7.50;;
39218;SDS011;24934;52.752;6.964;2022-08-21T09:33:34;9.52;;;8.82;;
39218;SDS011;24934;52.752;6.964;2022-08-21T09:36:00;8.07;;;7.57;;
39218;SDS011;24934;52.752;6.964;2022-08-21T09:38:35;8.65;;;7.88;;
39218;SDS011;24934;52.752;6.964;2022-08-21T09:41:07;9.40;;;8.80;;
39218;SDS011;24934;52.752;6.964;2022-08-21T09:43:35;9.98;;;9.27;;
39218;SDS011;24934;52.752;6.964;2022-08-21T09:46:09;9.40;;;8.80;;
39218;SDS011;24934;52.752;6.964;2022-08-21T09:48:47;8.45;;;7.90;;
39218;SDS011;24934;52.752;6.964;2022-08-21T09:51:17;8.45;;;7.95;;
39218;SDS011;24934;52.752;6.964;2022-08-21T09:53:49;7.95;;;7.45;;
39218;SDS011;24934;52.752;6.964;2022-08-21T09:56:26;6.97;;;6.47;;
39218;SDS011;24934;52.752;6.964;2022-08-21T09:59:17;7.85;;;7.35;;
39218;SDS011;24934;52.752;6.964;2022-08-21T10:01:47;8.75;;;8.00;;
39218;SDS011;24934;52.752;6.964;2022-08-21T10:07:14;9.68;;;8.45;;
39218;SDS011;24934;52.752;6.964;2022-08-21T10:09:40;9.30;;;8.70;;
39218;SDS011;24934;52.752;6.964;2022-08-21T10:12:17;8.70;;;8.20;;
39218;SDS011;24934;52.752;6.964;2022-08-21T10:15:10;8.63;;;8.02;;
39218;SDS011;24934;52.752;6.964;2022-08-21T10:35:51;9.00;;;8.30;;
39218;SDS011;24934;52.752;6.964;2022-08-21T10:41:21;8.82;;;8.23;;
39218;SDS011;24934;52.752;6.964;2022-08-21T10:49:51;9.15;;;8.55;;
39218;SDS011;24934;52.752;6.964;2022-08-21T10:55:31;7.90;;;7.40;;
39218;SDS011;24934;52.752;6.964;2022-08-21T10:58:14;7.70;;;7.30;;
39218;SDS011;24934;52.752;6.964;2022-08-21T11:00:53;7.80;;;7.30;;
39218;SDS011;24934;52.752;6.964;2022-08-21T11:06:14;8.07;;;7.57;;
39218;SDS011;24934;52.752;6.964;2022-08-21T11:08:55;6.20;;;5.90;;
39218;SDS011;24934;52.752;6.964;2022-08-21T11:14:04;8.10;;;7.60;;
39218;SDS011;24934;52.752;6.964;2022-08-21T11:16:37;8.43;;;7.93;;
39218;SDS011;24934;52.752;6.964;2022-08-21T11:22:36;8.73;;;8.13;;
39218;SDS011;24934;52.752;6.964;2022-08-21T11:25:37;9.00;;;8.40;;
39218;SDS011;24934;52.752;6.964;2022-08-21T11:28:37;10.95;;;8.80;;
39218;SDS011;24934;52.752;6.964;2022-08-21T11:31:12;9.40;;;8.60;;
39218;SDS011;24934;52.752;6.964;2022-08-21T11:40:37;8.30;;;7.80;;
39218;SDS011;24934;52.752;6.964;2022-08-21T11:43:32;9.40;;;8.68;;
39218;SDS011;24934;52.752;6.964;2022-08-21T11:49:17;7.93;;;7.43;;
39218;SDS011;24934;52.752;6.964;2022-08-21T11:52:07;8.10;;;7.65;;
39218;SDS011;24934;52.752;6.964;2022-08-21T11:57:16;8.20;;;7.70;;
39218;SDS011;24934;52.752;6.964;2022-08-21T11:59:55;8.20;;;7.70;;
39218;SDS011;24934;52.752;6.964;2022-08-21T12:02:29;8.10;;;7.60;;
39218;SDS011;24934;52.752;6.964;2022-08-21T12:05:03;8.25;;;7.75;;
39218;SDS011;24934;52.752;6.964;2022-08-21T12:07:46;9.48;;;8.60;;
39218;SDS011;24934;52.752;6.964;2022-08-21T12:10:18;7.65;;;7.15;;
39218;SDS011;24934;52.752;6.964;2022-08-21T12:13:05;8.60;;;8.10;;
39218;SDS011;24934;52.752;6.964;2022-08-21T12:15:33;9.10;;;8.40;;
39218;SDS011;24934;52.752;6.964;2022-08-21T12:18:02;8.18;;;7.68;;
39218;SDS011;24934;52.752;6.964;2022-08-21T12:29:43;8.90;;;8.30;;
39218;SDS011;24934;52.752;6.964;2022-08-21T12:34:48;8.02;;;7.50;;
39218;SDS011;24934;52.752;6.964;2022-08-21T12:37:22;7.38;;;6.97;;
39218;SDS011;24934;52.752;6.964;2022-08-21T12:40:04;7.35;;;6.95;;
39218;SDS011;24934;52.752;6.964;2022-08-21T12:42:39;7.38;;;6.80;;
39218;SDS011;24934;52.752;6.964;2022-08-21T12:47:59;7.72;;;7.22;;
39218;SDS011;24934;52.752;6.964;2022-08-21T12:50:38;8.50;;;7.90;;
39218;SDS011;24934;52.752;6.964;2022-08-21T12:53:16;7.40;;;7.00;;
39218;SDS011;24934;52.752;6.964;2022-08-21T12:56:03;8.68;;;7.93;;
39218;SDS011;24934;52.752;6.964;2022-08-21T12:58:33;7.60;;;6.97;;
39218;SDS011;24934;52.752;6.964;2022-08-21T13:01:02;7.53;;;6.60;;
39218;SDS011;24934;52.752;6.964;2022-08-21T13:03:35;7.10;;;6.55;;
39218;SDS011;24934;52.752;6.964;2022-08-21T13:06:03;6.65;;;6.15;;
39218;SDS011;24934;52.752;6.964;2022-08-21T13:08:29;6.85;;;6.25;;
39218;SDS011;24934;52.752;6.964;2022-08-21T13:10:58;5.13;;;4.82;;
39218;SDS011;24934;52.752;6.964;2022-08-21T13:13:27;7.65;;;7.20;;
39218;SDS011;24934;52.752;6.964;2022-08-21T13:15:57;7.95;;;7.50;;
39218;SDS011;24934;52.752;6.964;2022-08-21T13:18:26;8.10;;;7.60;;
39218;SDS011;24934;52.752;6.964;2022-08-21T13:23:30;6.95;;;6.55;;
39218;SDS011;24934;52.752;6.964;2022-08-21T13:25:56;7.53;;;7.07;;
39218;SDS011;24934;52.752;6.964;2022-08-21T13:28:22;8.05;;;7.57;;
39218;SDS011;24934;52.752;6.964;2022-08-21T13:30:49;7.93;;;7.38;;
39218;SDS011;24934;52.752;6.964;2022-08-21T13:33:23;8.02;;;7.50;;
39218;SDS011;24934;52.752;6.964;2022-08-21T13:36:01;6.85;;;6.45;;
39218;SDS011;24934;52.752;6.964;2022-08-21T13:38:46;7.70;;;7.20;;
39218;SDS011;24934;52.752;6.964;2022-08-21T13:41:24;8.30;;;7.80;;
39218;SDS011;24934;52.752;6.964;2022-08-21T13:43:57;8.23;;;7.50;;
39218;SDS011;24934;52.752;6.964;2022-08-21T13:46:35;6.55;;;6.00;;
39218;SDS011;24934;52.752;6.964;2022-08-21T13:49:02;6.28;;;5.78;;
39218;SDS011;24934;52.752;6.964;2022-08-21T13:51:30;5.97;;;5.68;;
39218;SDS011;24934;52.752;6.964;2022-08-21T13:53:56;5.43;;;5.13;;
39218;SDS011;24934;52.752;6.964;2022-08-21T13:56:29;7.07;;;6.68;;
39218;SDS011;24934;52.752;6.964;2022-08-21T13:59:07;8.60;;;8.00;;
39218;SDS011;24934;52.752;6.964;2022-08-21T14:01:37;7.13;;;6.72;;
39218;SDS011;24934;52.752;6.964;2022-08-21T14:04:23;7.35;;;6.95;;
39218;SDS011;24934;52.752;6.964;2022-08-21T14:06:52;8.05;;;7.55;;
39218;SDS011;24934;52.752;6.964;2022-08-21T14:11:57;7.15;;;6.60;;
39218;SDS011;24934;52.752;6.964;2022-08-21T14:14:27;7.00;;;6.47;;
39218;SDS011;24934;52.752;6.964;2022-08-21T14:17:44;7.70;;;7.25;;
39218;SDS011;24934;52.752;6.964;2022-08-21T14:20:00;7.38;;;6.65;;
39218;SDS011;24934;52.752;6.964;2022-08-21T14:22:36;7.40;;;7.00;;
39218;SDS011;24934;52.752;6.964;2022-08-21T14:25:26;8.02;;;7.43;;
39218;SDS011;24934;52.752;6.964;2022-08-21T14:28:14;6.80;;;6.40;;
39218;SDS011;24934;52.752;6.964;2022-08-21T14:30:58;6.57;;;6.18;;
39218;SDS011;24934;52.752;6.964;2022-08-21T14:33:35;6.88;;;6.07;;
39218;SDS011;24934;52.752;6.964;2022-08-21T14:36:00;5.05;;;4.75;;
39218;SDS011;24934;52.752;6.964;2022-08-21T14:38:30;6.38;;;6.00;;
39218;SDS011;24934;52.752;6.964;2022-08-21T14:41:00;7.45;;;6.88;;
39218;SDS011;24934;52.752;6.964;2022-08-21T14:43:28;6.45;;;6.05;;
39218;SDS011;24934;52.752;6.964;2022-08-21T14:45:58;7.50;;;6.88;;
39218;SDS011;24934;52.752;6.964;2022-08-21T14:48:28;6.20;;;5.90;;
39218;SDS011;24934;52.752;6.964;2022-08-21T14:50:54;7.38;;;6.63;;
39218;SDS011;24934;52.752;6.964;2022-08-21T14:53:22;7.00;;;6.60;;
39218;SDS011;24934;52.752;6.964;2022-08-21T14:55:47;7.22;;;6.63;;
39218;SDS011;24934;52.752;6.964;2022-08-21T14:58:36;5.32;;;5.03;;
39218;SDS011;24934;52.752;6.964;2022-08-21T15:01:04;5.97;;;5.65;;
39218;SDS011;24934;52.752;6.964;2022-08-21T15:03:34;6.00;;;5.60;;
39218;SDS011;24934;52.752;6.964;2022-08-21T15:06:01;5.60;;;5.30;;
39218;SDS011;24934;52.752;6.964;2022-08-21T15:08:28;6.00;;;5.60;;
39218;SDS011;24934;52.752;6.964;2022-08-21T15:10:54;6.07;;;5.68;;
39218;SDS011;24934;52.752;6.964;2022-08-21T15:13:20;5.97;;;5.57;;
39218;SDS011;24934;52.752;6.964;2022-08-21T15:15:47;5.90;;;5.60;;
39218;SDS011;24934;52.752;6.964;2022-08-21T15:18:15;6.80;;;6.22;;
39218;SDS011;24934;52.752;6.964;2022-08-21T15:20:41;6.30;;;5.90;;
39218;SDS011;24934;52.752;6.964;2022-08-21T15:23:07;6.00;;;5.70;;
39218;SDS011;24934;52.752;6.964;2022-08-21T15:25:33;5.47;;;5.10;;
39218;SDS011;24934;52.752;6.964;2022-08-21T15:28:00;5.68;;;5.22;;
39218;SDS011;24934;52.752;6.964;2022-08-21T15:30:28;8.63;;;6.00;;
39218;SDS011;24934;52.752;6.964;2022-08-21T15:32:58;5.97;;;5.68;;
39218;SDS011;24934;52.752;6.964;2022-08-21T15:35:23;6.20;;;5.70;;
39218;SDS011;24934;52.752;6.964;2022-08-21T15:37:49;5.65;;;5.25;;
39218;SDS011;24934;52.752;6.964;2022-08-21T15:40:15;6.78;;;4.43;;
39218;SDS011;24934;52.752;6.964;2022-08-21T15:42:41;4.78;;;4.47;;
39218;SDS011;24934;52.752;6.964;2022-08-21T15:45:07;4.90;;;4.60;;
39218;SDS011;24934;52.752;6.964;2022-08-21T15:47:38;6.45;;;5.95;;
39218;SDS011;24934;52.752;6.964;2022-08-21T15:50:10;5.53;;;5.20;;
39218;SDS011;24934;52.752;6.964;2022-08-21T15:52:36;5.10;;;4.80;;
39218;SDS011;24934;52.752;6.964;2022-08-21T15:55:03;5.65;;;5.13;;
39218;SDS011;24934;52.752;6.964;2022-08-21T15:57:29;5.93;;;5.53;;
39218;SDS011;24934;52.752;6.964;2022-08-21T16:00:07;6.07;;;5.68;;
39218;SDS011;24934;52.752;6.964;2022-08-21T16:02:39;6.10;;;5.70;;
39218;SDS011;24934;52.752;6.964;2022-08-21T16:05:07;5.50;;;5.10;;
39218;SDS011;24934;52.752;6.964;2022-08-21T16:07:35;4.90;;;4.60;;
39218;SDS011;24934;52.752;6.964;2022-08-21T16:10:01;5.57;;;5.20;;
39218;SDS011;24934;52.752;6.964;2022-08-21T16:12:29;4.80;;;4.60;;
39218;SDS011;24934;52.752;6.964;2022-08-21T16:14:57;5.80;;;5.30;;
39218;SDS011;24934;52.752;6.964;2022-08-21T16:17:25;5.75;;;5.28;;
39218;SDS011;24934;52.752;6.964;2022-08-21T16:19:54;5.78;;;5.38;;
39218;SDS011;24934;52.752;6.964;2022-08-21T16:22:20;5.97;;;5.45;;
39218;SDS011;24934;52.752;6.964;2022-08-21T16:24:46;6.32;;;5.93;;
39218;SDS011;24934;52.752;6.964;2022-08-21T16:27:15;6.57;;;6.15;;
39218;SDS011;24934;52.752;6.964;2022-08-21T16:29:45;6.65;;;5.82;;
39218;SDS011;24934;52.752;6.964;2022-08-21T16:32:17;6.35;;;5.82;;
39218;SDS011;24934;52.752;6.964;2022-08-21T16:34:46;7.38;;;6.38;;